createdAt,value
2019-03-08T00:00:13.487Z,8.90
2019-03-08T00:00:48.875Z,9.00
2019-03-08T00:01:24.588Z,11.40
2019-03-08T00:01:59.718Z,7.00
2019-03-08T00:02:35.203Z,6.10
2019-03-08T00:03:11.044Z,10.60
2019-03-08T00:03:46.364Z,7.30
2019-03-08T00:04:21.578Z,5.50
2019-03-08T00:04:57.286Z,6.40
2019-03-08T00:05:32.583Z,8.60
2019-03-08T00:06:07.806Z,7.60
2019-03-08T00:06:43.494Z,7.20
2019-03-08T00:07:19.263Z,5.80
2019-03-08T00:07:54.575Z,6.20
2019-03-08T00:08:30.036Z,9.10
2019-03-08T00:09:05.442Z,8.10
2019-03-08T00:09:40.769Z,11.50
2019-03-08T00:10:16.359Z,7.70
2019-03-08T00:10:51.900Z,5.70
2019-03-08T00:11:27.606Z,9.80
2019-03-08T00:12:03.016Z,8.90
2019-03-08T00:12:38.112Z,10.30
2019-03-08T00:13:13.436Z,10.80
2019-03-08T00:13:48.985Z,7.30
2019-03-08T00:14:24.502Z,12.70
2019-03-08T00:14:59.912Z,10.70
2019-03-08T00:15:35.197Z,9.60
2019-03-08T00:16:10.433Z,12.30
2019-03-08T00:16:45.943Z,10.20
2019-03-08T00:17:21.263Z,7.30
2019-03-08T00:17:56.647Z,10.50
2019-03-08T00:18:32.083Z,10.60
2019-03-08T00:19:07.484Z,7.30
2019-03-08T00:19:43.015Z,11.30
2019-03-08T00:20:18.097Z,10.60
2019-03-08T00:20:53.327Z,10.80
2019-03-08T00:21:28.832Z,11.30
2019-03-08T00:22:04.159Z,12.10
2019-03-08T00:22:39.558Z,8.20
2019-03-08T00:23:14.986Z,7.70
2019-03-08T00:23:51.339Z,10.70
2019-03-08T00:24:27.552Z,11.70
2019-03-08T00:25:03.038Z,9.20
2019-03-08T00:25:38.387Z,12.20
2019-03-08T00:26:13.883Z,14.80
2019-03-08T00:26:49.412Z,10.40
2019-03-08T00:27:24.827Z,5.80
2019-03-08T00:28:00.204Z,10.70
2019-03-08T00:28:35.436Z,7.80
2019-03-08T00:29:10.888Z,7.20
2019-03-08T00:29:45.988Z,10.40
2019-03-08T00:30:21.592Z,11.60
2019-03-08T00:30:57.033Z,12.90
2019-03-08T00:31:32.511Z,11.60
2019-03-08T00:32:07.784Z,9.90
2019-03-08T00:32:43.151Z,8.00
2019-03-08T00:33:18.651Z,7.70
2019-03-08T00:33:54.073Z,7.00
2019-03-08T00:34:29.189Z,8.80
2019-03-08T00:35:04.679Z,8.50
2019-03-08T00:35:39.901Z,9.10
2019-03-08T00:36:15.899Z,7.20
2019-03-08T00:36:51.123Z,8.90
2019-03-08T00:37:26.318Z,12.60
2019-03-08T00:38:01.853Z,16.70
2019-03-08T00:38:36.966Z,15.50
2019-03-08T00:39:12.289Z,11.00
2019-03-08T00:39:47.479Z,11.20
2019-03-08T00:40:22.902Z,14.00
2019-03-08T00:40:58.198Z,11.60
2019-03-08T00:41:33.823Z,7.30
2019-03-08T00:42:09.430Z,5.40
2019-03-08T00:42:44.946Z,9.90
2019-03-08T00:43:20.355Z,12.60
2019-03-08T00:43:55.767Z,9.10
2019-03-08T00:44:31.168Z,6.70
2019-03-08T00:45:06.584Z,10.30
2019-03-08T00:45:42.078Z,9.10
2019-03-08T00:46:17.502Z,6.70
2019-03-08T00:46:52.827Z,10.30
2019-03-08T00:47:28.141Z,9.80
2019-03-08T00:48:03.473Z,7.90
2019-03-08T00:48:38.892Z,6.90
2019-03-08T00:49:14.323Z,9.10
2019-03-08T00:49:49.742Z,9.20
2019-03-08T00:50:25.264Z,10.00
2019-03-08T00:51:00.757Z,8.20
2019-03-08T00:51:36.067Z,7.20
2019-03-08T00:52:11.253Z,12.00
2019-03-08T00:52:46.806Z,12.30
2019-03-08T00:53:21.924Z,9.60
2019-03-08T00:53:57.044Z,13.50
2019-03-08T00:54:32.534Z,15.60
2019-03-08T00:55:07.763Z,11.70
2019-03-08T00:55:43.251Z,14.80
2019-03-08T00:56:18.378Z,11.90
2019-03-08T00:56:53.873Z,9.10
2019-03-08T00:57:28.999Z,11.00
2019-03-08T00:58:04.184Z,9.00
2019-03-08T00:58:39.462Z,8.90
2019-03-08T00:59:15.054Z,9.90
2019-03-08T00:59:50.404Z,15.50
2019-03-08T01:00:25.694Z,13.90
2019-03-08T01:01:01.213Z,15.10
2019-03-08T01:01:36.621Z,9.30
2019-03-08T01:02:12.033Z,8.00
2019-03-08T01:02:47.336Z,10.20
2019-03-08T01:03:22.876Z,14.70
2019-03-08T01:03:58.665Z,18.20
2019-03-08T01:04:34.107Z,11.80
2019-03-08T01:05:09.513Z,10.50
2019-03-08T01:05:44.833Z,9.90
2019-03-08T01:06:20.012Z,11.20
2019-03-08T01:06:55.452Z,11.50
2019-03-08T01:07:30.653Z,7.50
2019-03-08T01:08:06.184Z,6.40
2019-03-08T01:08:41.593Z,10.20
2019-03-08T01:09:17.232Z,10.60
2019-03-08T01:09:52.452Z,10.90
2019-03-08T01:10:28.052Z,9.20
2019-03-08T01:11:03.468Z,7.90
2019-03-08T01:11:39.170Z,8.10
2019-03-08T01:12:14.576Z,9.80
2019-03-08T01:12:49.755Z,11.00
2019-03-08T01:13:25.116Z,14.70
2019-03-08T01:14:00.350Z,16.30
2019-03-08T01:14:35.923Z,12.40
2019-03-08T01:15:11.335Z,9.90
2019-03-08T01:15:46.574Z,8.50
2019-03-08T01:16:21.864Z,8.90
2019-03-08T01:16:57.180Z,11.10
2019-03-08T01:17:32.373Z,11.60
2019-03-08T01:18:07.605Z,14.30
2019-03-08T01:18:42.914Z,13.50
2019-03-08T01:19:18.163Z,9.70
2019-03-08T01:19:53.348Z,10.80
2019-03-08T01:20:28.960Z,11.90
2019-03-08T01:21:04.690Z,11.50
2019-03-08T01:21:40.249Z,10.70
2019-03-08T01:22:15.772Z,7.70
2019-03-08T01:22:51.150Z,6.90
2019-03-08T01:23:27.112Z,9.90
2019-03-08T01:24:02.751Z,11.00
2019-03-08T01:24:38.057Z,9.00
2019-03-08T01:25:13.676Z,8.10
2019-03-08T01:25:48.984Z,8.10
2019-03-08T01:26:24.405Z,10.30
2019-03-08T01:26:59.498Z,12.60
2019-03-08T01:27:34.824Z,7.90
2019-03-08T01:28:10.234Z,7.40
2019-03-08T01:28:45.481Z,9.20
2019-03-08T01:29:20.971Z,10.50
2019-03-08T01:29:56.386Z,12.90
2019-03-08T01:30:31.604Z,9.40
2019-03-08T01:31:06.994Z,10.20
2019-03-08T01:31:42.419Z,7.10
2019-03-08T01:32:17.818Z,6.90
2019-03-08T01:32:52.954Z,13.40
2019-03-08T01:33:28.153Z,15.90
2019-03-08T01:34:03.521Z,8.90
2019-03-08T01:34:38.835Z,9.20
2019-03-08T01:35:14.351Z,12.90
2019-03-08T01:35:49.644Z,10.10
2019-03-08T01:36:24.954Z,7.90
2019-03-08T01:37:00.150Z,9.00
2019-03-08T01:37:35.765Z,13.50
2019-03-08T01:38:11.055Z,12.40
2019-03-08T01:38:46.466Z,7.70
2019-03-08T01:39:21.895Z,10.40
2019-03-08T01:39:57.422Z,8.20
2019-03-08T01:40:32.911Z,6.00
2019-03-08T01:41:08.127Z,7.50
2019-03-08T01:41:43.651Z,10.80
2019-03-08T01:42:19.179Z,16.40
2019-03-08T01:42:54.280Z,13.10
2019-03-08T01:43:29.884Z,7.70
2019-03-08T01:44:05.068Z,7.10
2019-03-08T01:44:40.206Z,9.00
2019-03-08T01:45:15.494Z,9.70
2019-03-08T01:45:51.007Z,9.60
2019-03-08T01:46:26.214Z,9.20
2019-03-08T01:47:01.627Z,7.90
2019-03-08T01:47:36.814Z,9.60
2019-03-08T01:48:12.030Z,9.50
2019-03-08T01:48:47.144Z,12.00
2019-03-08T01:49:22.520Z,13.00
2019-03-08T01:49:57.812Z,10.70
2019-03-08T01:50:33.433Z,13.20
2019-03-08T01:51:08.719Z,10.40
2019-03-08T01:51:43.937Z,14.80
2019-03-08T01:52:19.358Z,10.00
2019-03-08T01:52:54.571Z,9.80
2019-03-08T01:53:29.989Z,13.50
2019-03-08T01:54:05.272Z,14.00
2019-03-08T01:54:40.619Z,13.40
2019-03-08T01:55:16.017Z,9.90
2019-03-08T01:55:51.254Z,10.00
2019-03-08T01:56:26.665Z,11.80
2019-03-08T01:57:01.996Z,11.40
2019-03-08T01:57:37.293Z,7.70
2019-03-08T01:58:12.656Z,13.30
2019-03-08T01:58:48.044Z,15.20
2019-03-08T01:59:23.295Z,11.00
2019-03-08T01:59:59.001Z,17.90
2019-03-08T02:00:34.408Z,17.40
2019-03-08T02:01:09.801Z,11.00
2019-03-08T02:01:45.231Z,12.10
2019-03-08T02:02:20.318Z,8.00
2019-03-08T02:02:55.550Z,8.00
2019-03-08T02:03:30.937Z,7.70
2019-03-08T02:04:06.252Z,8.90
2019-03-08T02:04:41.802Z,7.60
2019-03-08T02:05:17.007Z,8.50
2019-03-08T02:05:52.188Z,5.70
2019-03-08T02:06:27.812Z,8.00
2019-03-08T02:07:03.340Z,9.20
2019-03-08T02:07:38.868Z,8.60
2019-03-08T02:08:14.059Z,8.00
2019-03-08T02:08:49.204Z,7.20
2019-03-08T02:09:24.304Z,4.40
2019-03-08T02:09:59.524Z,5.30
2019-03-08T02:10:34.827Z,6.50
2019-03-08T02:11:10.355Z,6.70
2019-03-08T02:11:45.740Z,6.80
2019-03-08T02:12:21.086Z,4.80
2019-03-08T02:12:56.389Z,5.60
2019-03-08T02:13:31.608Z,5.40
2019-03-08T02:14:06.817Z,5.00
2019-03-08T02:14:42.252Z,4.30
2019-03-08T02:15:17.650Z,5.50
2019-03-08T02:15:52.880Z,7.40
2019-03-08T02:16:28.369Z,8.90
2019-03-08T02:17:03.592Z,7.00
2019-03-08T02:17:38.911Z,7.20
2019-03-08T02:18:14.400Z,8.50
2019-03-08T02:18:49.744Z,8.20
2019-03-08T02:19:25.072Z,8.60
2019-03-08T02:20:00.498Z,8.30
2019-03-08T02:20:35.890Z,7.60
2019-03-08T02:21:11.205Z,6.00
2019-03-08T02:21:46.985Z,6.50
2019-03-08T02:22:23.532Z,6.90
2019-03-08T02:22:57.695Z,7.10
2019-03-08T02:23:33.100Z,5.80
2019-03-08T02:24:08.504Z,6.80
2019-03-08T02:24:43.742Z,7.10
2019-03-08T02:25:19.032Z,6.30
2019-03-08T02:25:54.454Z,8.50
2019-03-08T02:26:29.540Z,6.60
2019-03-08T02:27:04.953Z,6.30
2019-03-08T02:27:40.339Z,7.60
2019-03-08T02:28:15.854Z,10.50
2019-03-08T02:28:51.137Z,8.30
2019-03-08T02:29:26.698Z,6.80
2019-03-08T02:30:01.775Z,6.40
2019-03-08T02:30:37.190Z,7.70
2019-03-08T02:31:12.358Z,9.30
2019-03-08T02:31:47.582Z,8.70
2019-03-08T02:32:22.867Z,6.90
2019-03-08T02:32:58.186Z,7.40
2019-03-08T02:33:33.501Z,7.30
2019-03-08T02:34:08.781Z,6.90
2019-03-08T02:34:44.028Z,7.60
2019-03-08T02:35:19.216Z,11.10
2019-03-08T02:35:54.526Z,9.60
2019-03-08T02:36:29.821Z,10.10
2019-03-08T02:37:05.038Z,8.40
2019-03-08T02:37:40.471Z,7.60
2019-03-08T02:38:15.959Z,7.80
2019-03-08T02:38:51.174Z,6.90
2019-03-08T02:39:26.540Z,6.80
2019-03-08T02:40:02.160Z,5.80
2019-03-08T02:40:37.341Z,6.60
2019-03-08T02:41:12.860Z,11.60
2019-03-08T02:41:48.047Z,12.70
2019-03-08T02:42:23.354Z,9.70
2019-03-08T02:42:58.534Z,7.40
2019-03-08T02:43:33.938Z,7.80
2019-03-08T02:44:09.225Z,12.30
2019-03-08T02:44:44.954Z,12.60
2019-03-08T02:45:20.348Z,9.10
2019-03-08T02:45:55.770Z,8.20
2019-03-08T02:46:31.057Z,7.50
2019-03-08T02:47:06.393Z,6.70
2019-03-08T02:47:41.557Z,8.20
2019-03-08T02:48:16.974Z,6.90
2019-03-08T02:48:52.171Z,7.40
2019-03-08T02:49:27.713Z,8.60
2019-03-08T02:50:03.105Z,8.70
2019-03-08T02:50:38.403Z,7.90
2019-03-08T02:51:14.086Z,7.20
2019-03-08T02:51:49.398Z,6.80
2019-03-08T02:52:25.180Z,7.50
2019-03-08T02:53:00.381Z,9.90
2019-03-08T02:53:35.789Z,12.30
2019-03-08T02:54:11.165Z,11.10
2019-03-08T02:54:46.504Z,10.40
2019-03-08T02:55:21.884Z,10.00
2019-03-08T02:55:57.201Z,9.10
2019-03-08T02:56:32.531Z,11.30
2019-03-08T02:57:07.616Z,10.60
2019-03-08T02:57:42.849Z,11.00
2019-03-08T02:58:18.248Z,13.30
2019-03-08T02:58:53.572Z,10.00
2019-03-08T02:59:28.788Z,11.60
2019-03-08T03:00:04.313Z,12.20
2019-03-08T03:00:39.690Z,15.90
2019-03-08T03:01:15.154Z,14.10
2019-03-08T03:01:50.335Z,10.80
2019-03-08T03:02:25.557Z,13.50
2019-03-08T03:03:00.959Z,9.80
2019-03-08T03:03:36.157Z,13.30
2019-03-08T03:04:11.356Z,14.10
2019-03-08T03:04:46.485Z,11.00
2019-03-08T03:05:21.978Z,11.50
2019-03-08T03:05:57.494Z,14.20
2019-03-08T03:06:33.106Z,15.30
2019-03-08T03:07:08.428Z,10.90
2019-03-08T03:07:43.716Z,11.70
2019-03-08T03:08:19.067Z,12.90
2019-03-08T03:08:54.496Z,12.30
2019-03-08T03:09:30.108Z,10.30
2019-03-08T03:10:05.492Z,10.20
2019-03-08T03:10:40.886Z,10.00
2019-03-08T03:11:16.165Z,11.10
2019-03-08T03:11:51.482Z,14.90
2019-03-08T03:12:27.062Z,15.90
2019-03-08T03:13:02.663Z,11.40
2019-03-08T03:13:38.177Z,11.50
2019-03-08T03:14:13.259Z,13.30
2019-03-08T03:14:48.498Z,11.70
2019-03-08T03:15:23.777Z,13.90
2019-03-08T03:15:59.190Z,13.80
2019-03-08T03:16:35.086Z,14.20
2019-03-08T03:17:10.304Z,13.10
2019-03-08T03:17:45.682Z,14.50
2019-03-08T03:18:20.998Z,10.80
2019-03-08T03:18:56.633Z,11.60
2019-03-08T03:19:32.033Z,14.60
2019-03-08T03:20:07.415Z,16.60
2019-03-08T03:20:42.847Z,13.70
2019-03-08T03:21:18.355Z,13.80
2019-03-08T03:21:53.674Z,17.70
2019-03-08T03:22:29.278Z,12.30
2019-03-08T03:23:04.413Z,16.50
2019-03-08T03:23:39.629Z,12.90
2019-03-08T03:24:14.809Z,12.40
2019-03-08T03:24:50.249Z,16.70
2019-03-08T03:25:25.405Z,16.10
2019-03-08T03:26:00.474Z,15.50
2019-03-08T03:26:35.688Z,12.70
2019-03-08T03:27:11.502Z,13.70
2019-03-08T03:27:46.794Z,15.50
2019-03-08T03:28:21.900Z,12.20
2019-03-08T03:28:57.284Z,12.20
2019-03-08T03:29:32.427Z,12.10
2019-03-08T03:30:07.932Z,14.50
2019-03-08T03:30:43.731Z,13.60
2019-03-08T03:31:19.018Z,15.60
2019-03-08T03:31:54.388Z,16.70
2019-03-08T03:32:29.491Z,12.30
2019-03-08T03:33:04.800Z,9.90
2019-03-08T03:33:40.205Z,12.30
2019-03-08T03:34:15.386Z,14.10
2019-03-08T03:34:50.603Z,11.90
2019-03-08T03:35:25.903Z,16.40
2019-03-08T03:36:01.430Z,13.30
2019-03-08T03:36:36.610Z,13.60
2019-03-08T03:37:12.133Z,13.50
2019-03-08T03:37:47.226Z,12.20
2019-03-08T03:38:22.833Z,12.80
2019-03-08T03:38:58.544Z,14.70
2019-03-08T03:39:33.965Z,12.60
2019-03-08T03:40:09.450Z,11.20
2019-03-08T03:40:44.760Z,14.60
2019-03-08T03:41:20.045Z,16.10
2019-03-08T03:41:55.178Z,13.80
2019-03-08T03:42:30.276Z,10.50
2019-03-08T03:43:05.882Z,10.40
2019-03-08T03:43:41.209Z,15.70
2019-03-08T03:44:16.716Z,15.50
2019-03-08T03:44:52.131Z,13.40
2019-03-08T03:45:27.739Z,11.20
2019-03-08T03:46:03.057Z,13.00
2019-03-08T03:46:38.246Z,13.30
2019-03-08T03:47:13.564Z,12.10
2019-03-08T03:47:49.193Z,14.60
2019-03-08T03:48:24.599Z,14.10
2019-03-08T03:48:59.770Z,14.60
2019-03-08T03:49:35.481Z,12.40
2019-03-08T03:50:10.863Z,15.70
2019-03-08T03:50:46.209Z,13.30
2019-03-08T03:51:21.787Z,16.30
2019-03-08T03:51:57.196Z,15.40
2019-03-08T03:52:32.598Z,14.90
2019-03-08T03:53:08.001Z,15.80
2019-03-08T03:53:43.549Z,15.50
2019-03-08T03:54:19.039Z,14.10
2019-03-08T03:54:54.455Z,16.60
2019-03-08T03:55:29.755Z,12.40
2019-03-08T03:56:05.070Z,12.20
2019-03-08T03:56:40.658Z,18.90
2019-03-08T03:57:15.891Z,17.70
2019-03-08T03:57:51.304Z,15.40
2019-03-08T03:58:26.624Z,12.00
2019-03-08T03:59:02.053Z,12.50
2019-03-08T03:59:37.367Z,18.70
2019-03-08T04:00:12.773Z,16.60
2019-03-08T04:00:48.185Z,12.50
2019-03-08T04:01:23.574Z,17.00
2019-03-08T04:01:59.215Z,17.50
2019-03-08T04:02:34.704Z,20.20
2019-03-08T04:03:10.229Z,15.20
2019-03-08T04:03:45.440Z,15.30
2019-03-08T04:04:20.979Z,15.40
2019-03-08T04:04:56.299Z,14.90
2019-03-08T04:05:31.696Z,17.70
2019-03-08T04:06:07.255Z,15.90
2019-03-08T04:06:42.559Z,14.80
2019-03-08T04:07:17.991Z,14.00
2019-03-08T04:07:53.191Z,15.40
2019-03-08T04:08:28.510Z,10.80
2019-03-08T04:09:03.681Z,12.70
2019-03-08T04:09:39.076Z,15.00
2019-03-08T04:10:14.573Z,17.90
2019-03-08T04:10:49.890Z,19.70
2019-03-08T04:11:25.450Z,17.60
2019-03-08T04:12:00.759Z,16.80
2019-03-08T04:12:36.290Z,14.20
2019-03-08T04:13:12.030Z,28.20
2019-03-08T04:13:47.622Z,21.40
2019-03-08T04:14:23.338Z,16.30
2019-03-08T04:14:58.750Z,17.20
2019-03-08T04:15:35.079Z,17.50
2019-03-08T04:16:10.582Z,13.00
2019-03-08T04:16:45.997Z,14.40
2019-03-08T04:17:21.207Z,15.60
2019-03-08T04:17:56.614Z,15.20
2019-03-08T04:18:32.044Z,16.70
2019-03-08T04:19:07.113Z,20.40
2019-03-08T04:19:42.443Z,18.70
2019-03-08T04:20:18.042Z,20.60
2019-03-08T04:20:53.259Z,18.20
2019-03-08T04:21:28.570Z,16.20
2019-03-08T04:22:03.869Z,11.00
2019-03-08T04:22:38.981Z,20.30
2019-03-08T04:23:14.500Z,20.90
2019-03-08T04:23:49.603Z,16.40
2019-03-08T04:24:24.936Z,21.10
2019-03-08T04:25:00.308Z,22.70
2019-03-08T04:25:35.602Z,18.90
2019-03-08T04:26:11.287Z,15.20
2019-03-08T04:26:46.994Z,12.10
2019-03-08T04:27:22.511Z,13.60
2019-03-08T04:27:58.346Z,18.60
2019-03-08T04:28:33.805Z,15.70
2019-03-08T04:29:09.106Z,12.10
2019-03-08T04:29:44.410Z,15.20
2019-03-08T04:30:19.730Z,12.40
2019-03-08T04:30:54.945Z,12.50
2019-03-08T04:31:30.171Z,10.90
2019-03-08T04:32:05.487Z,16.50
2019-03-08T04:32:40.791Z,16.50
2019-03-08T04:33:16.115Z,14.30
2019-03-08T04:33:51.804Z,16.70
2019-03-08T04:34:27.318Z,21.20
2019-03-08T04:35:02.814Z,22.30
2019-03-08T04:35:38.128Z,21.10
2019-03-08T04:36:13.606Z,18.90
2019-03-08T04:36:49.013Z,17.80
2019-03-08T04:37:24.416Z,19.70
2019-03-08T04:38:00.038Z,20.10
2019-03-08T04:38:35.253Z,17.00
2019-03-08T04:39:10.514Z,24.00
2019-03-08T04:39:45.834Z,19.90
2019-03-08T04:40:21.318Z,17.20
2019-03-08T04:40:56.435Z,18.20
2019-03-08T04:41:31.623Z,19.20
2019-03-08T04:42:06.944Z,17.60
2019-03-08T04:42:42.113Z,18.90
2019-03-08T04:43:17.518Z,18.20
2019-03-08T04:43:53.045Z,16.30
2019-03-08T04:44:28.236Z,14.50
2019-03-08T04:45:03.449Z,15.50
2019-03-08T04:45:38.735Z,15.30
2019-03-08T04:46:14.030Z,17.30
2019-03-08T04:46:49.541Z,17.30
2019-03-08T04:47:24.727Z,10.10
2019-03-08T04:48:00.129Z,16.50
2019-03-08T04:48:35.577Z,18.30
2019-03-08T04:49:10.985Z,15.50
2019-03-08T04:49:46.295Z,21.90
2019-03-08T04:50:21.671Z,20.50
2019-03-08T04:50:56.682Z,17.20
2019-03-08T04:51:31.769Z,21.60
2019-03-08T04:52:06.878Z,23.70
2019-03-08T04:52:41.961Z,12.60
2019-03-08T04:53:17.583Z,16.40
2019-03-08T04:53:52.953Z,18.80
2019-03-08T04:54:28.540Z,20.30
2019-03-08T04:55:03.978Z,21.70
2019-03-08T04:55:39.265Z,25.10
2019-03-08T04:56:14.709Z,21.40
2019-03-08T04:56:50.134Z,21.30
2019-03-08T04:57:25.471Z,22.70
2019-03-08T04:58:01.148Z,20.30
2019-03-08T04:58:36.365Z,15.30
2019-03-08T04:59:11.913Z,20.50
2019-03-08T04:59:50.519Z,19.80
2019-03-08T05:00:25.930Z,20.30
2019-03-08T05:01:01.257Z,21.10
2019-03-08T05:01:36.675Z,17.20
2019-03-08T05:02:12.157Z,17.50
2019-03-08T05:02:47.839Z,18.80
2019-03-08T05:03:23.504Z,20.20
2019-03-08T05:03:58.685Z,21.00
2019-03-08T05:04:33.706Z,18.40
2019-03-08T05:05:08.817Z,18.60
2019-03-08T05:05:44.096Z,19.50
2019-03-08T05:06:19.311Z,22.90
2019-03-08T05:06:54.827Z,21.10
2019-03-08T05:07:30.330Z,28.20
2019-03-08T05:08:05.829Z,28.90
2019-03-08T05:08:41.134Z,19.90
2019-03-08T05:09:16.555Z,16.80
2019-03-08T05:09:51.963Z,17.50
2019-03-08T05:10:27.283Z,26.70
2019-03-08T05:11:02.562Z,23.80
2019-03-08T05:11:37.763Z,20.10
2019-03-08T05:12:13.078Z,19.30
2019-03-08T05:12:48.258Z,24.50
2019-03-08T05:13:23.601Z,26.30
2019-03-08T05:13:59.172Z,18.60
2019-03-08T05:14:34.795Z,20.00
2019-03-08T05:15:10.327Z,18.30
2019-03-08T05:15:46.011Z,16.10
2019-03-08T05:16:21.423Z,17.30
2019-03-08T05:16:56.728Z,17.90
2019-03-08T05:17:31.962Z,21.20
2019-03-08T05:18:06.977Z,20.50
2019-03-08T05:18:42.487Z,23.30
2019-03-08T05:19:17.994Z,25.00
2019-03-08T05:19:53.372Z,26.00
2019-03-08T05:20:28.691Z,18.60
2019-03-08T05:21:04.182Z,16.10
2019-03-08T05:21:39.681Z,17.80
2019-03-08T05:22:14.794Z,24.10
2019-03-08T05:22:49.979Z,21.40
2019-03-08T05:23:25.419Z,21.90
2019-03-08T05:24:00.999Z,27.00
2019-03-08T05:24:36.209Z,28.30
2019-03-08T05:25:11.627Z,30.70
2019-03-08T05:25:47.232Z,26.50
2019-03-08T05:26:22.440Z,23.90
2019-03-08T05:26:57.630Z,21.80
2019-03-08T05:27:32.638Z,23.20
2019-03-08T05:28:07.969Z,26.40
2019-03-08T05:28:43.101Z,22.60
2019-03-08T05:29:18.585Z,21.00
2019-03-08T05:29:53.900Z,25.90
2019-03-08T05:30:29.530Z,25.70
2019-03-08T05:31:04.631Z,26.90
2019-03-08T05:31:39.858Z,25.10
2019-03-08T05:32:15.039Z,17.00
2019-03-08T05:32:50.458Z,27.40
2019-03-08T05:33:25.758Z,31.20
2019-03-08T05:34:00.999Z,26.90
2019-03-08T05:34:36.209Z,24.60
2019-03-08T05:35:11.798Z,26.70
2019-03-08T05:35:47.024Z,21.90
2019-03-08T05:36:22.323Z,19.80
2019-03-08T05:36:57.822Z,23.90
2019-03-08T05:37:33.115Z,24.00
2019-03-08T05:38:08.226Z,24.00
2019-03-08T05:38:43.577Z,26.40
2019-03-08T05:39:19.067Z,26.90
2019-03-08T05:39:54.380Z,21.30
2019-03-08T05:40:29.974Z,19.30
2019-03-08T05:41:05.573Z,22.50
2019-03-08T05:41:41.188Z,19.60
2019-03-08T05:42:16.289Z,17.70
2019-03-08T05:42:51.385Z,28.90
2019-03-08T05:43:26.809Z,22.30
2019-03-08T05:44:02.603Z,20.10
2019-03-08T05:44:47.112Z,25.80
2019-03-08T05:45:38.972Z,23.60
2019-03-08T05:46:14.486Z,22.70
2019-03-08T05:47:10.684Z,25.10
2019-03-08T05:47:46.301Z,24.00
2019-03-08T05:48:21.403Z,21.40
2019-03-08T05:48:56.817Z,23.60
2019-03-08T05:49:32.195Z,24.30
2019-03-08T05:50:07.497Z,25.30
2019-03-08T05:50:54.321Z,29.90
2019-03-08T05:51:29.991Z,29.70
2019-03-08T05:52:05.209Z,24.10
2019-03-08T05:52:40.503Z,21.80
2019-03-08T05:53:15.812Z,26.70
2019-03-08T05:53:51.253Z,33.10
2019-03-08T05:54:36.830Z,23.30
2019-03-08T05:55:12.249Z,15.30
2019-03-08T06:02:46.198Z,31.70
2019-03-08T06:03:21.618Z,29.80
2019-03-08T06:03:57.013Z,31.90
2019-03-08T06:04:32.280Z,38.90
2019-03-08T06:05:07.968Z,34.30
2019-03-08T06:05:53.447Z,23.50
2019-03-08T06:06:28.824Z,31.10
2019-03-08T06:07:04.005Z,28.60
2019-03-08T06:07:39.357Z,25.90
2019-03-08T06:10:34.098Z,24.90
2019-03-08T06:11:09.482Z,29.80
2019-03-08T06:11:44.785Z,27.20
2019-03-08T06:12:20.283Z,30.90
2019-03-08T06:13:07.884Z,39.30
2019-03-08T06:13:43.229Z,35.00
2019-03-08T06:14:18.415Z,33.80
2019-03-08T06:14:53.582Z,22.60
2019-03-08T06:15:28.848Z,23.70
2019-03-08T06:16:15.256Z,26.90
2019-03-08T06:16:50.560Z,22.40
2019-03-08T06:17:26.167Z,24.90
2019-03-08T06:18:16.856Z,34.00
2019-03-08T06:19:02.001Z,30.20
2019-03-08T06:19:37.411Z,30.40
2019-03-08T06:20:12.709Z,28.90
2019-03-08T06:21:03.260Z,28.60
2019-03-08T06:21:40.459Z,27.60
2019-03-08T06:22:15.766Z,25.70
2019-03-08T06:22:51.340Z,31.60
2019-03-08T06:23:26.875Z,28.80
2019-03-08T06:24:01.964Z,29.60
2019-03-08T06:24:37.364Z,20.20
2019-03-08T06:25:13.035Z,25.10
2019-03-08T06:25:48.307Z,26.80
2019-03-08T06:26:23.599Z,26.00
2019-03-08T06:27:07.569Z,26.70
2019-03-08T06:27:42.753Z,24.80
2019-03-08T06:28:17.973Z,30.40
2019-03-08T06:28:53.153Z,26.20
2019-03-08T06:29:37.296Z,24.30
2019-03-08T06:30:47.783Z,26.00
2019-03-08T06:31:22.954Z,20.50
2019-03-08T06:31:58.628Z,27.30
2019-03-08T06:32:34.123Z,22.80
2019-03-08T06:33:09.502Z,25.10
2019-03-08T06:33:44.712Z,29.20
2019-03-08T06:34:20.110Z,23.90
2019-03-08T06:34:55.274Z,18.30
2019-03-08T06:35:30.467Z,24.10
2019-03-08T06:36:15.671Z,31.60
2019-03-08T06:46:15.737Z,26.10
2019-03-08T06:46:51.019Z,23.40
2019-03-08T06:47:25.980Z,22.10
2019-03-08T06:48:01.263Z,24.90
2019-03-08T06:48:36.521Z,35.80
2019-03-08T06:49:11.937Z,33.10
2019-03-08T06:49:47.224Z,26.70
2019-03-08T06:50:22.789Z,25.70
2019-03-08T06:50:57.992Z,27.70
2019-03-08T06:51:33.759Z,36.70
2019-03-08T06:52:09.275Z,37.40
2019-03-08T06:52:44.761Z,29.30
2019-03-08T06:53:20.055Z,30.10
2019-03-08T06:53:55.351Z,30.90
2019-03-08T06:54:30.923Z,30.70
2019-03-08T06:55:06.600Z,23.30
2019-03-08T06:55:41.988Z,22.30
2019-03-08T06:56:17.345Z,35.90
2019-03-08T06:56:52.936Z,42.40
2019-03-08T06:57:28.145Z,31.20
2019-03-08T06:58:03.412Z,23.10
2019-03-08T06:58:38.594Z,30.40
2019-03-08T06:59:13.877Z,32.30
2019-03-08T06:59:49.400Z,33.80
2019-03-08T07:00:24.778Z,25.10
2019-03-08T07:00:59.963Z,17.50
2019-03-08T07:01:35.343Z,29.50
2019-03-08T07:02:10.656Z,27.30
2019-03-08T07:02:45.953Z,26.40
2019-03-08T07:03:21.556Z,29.10
2019-03-08T07:03:56.945Z,26.80
2019-03-08T07:04:32.203Z,23.00
2019-03-08T07:05:07.605Z,28.90
2019-03-08T07:05:42.786Z,33.10
2019-03-08T07:06:26.534Z,30.50
2019-03-08T07:07:02.238Z,28.00
2019-03-08T07:07:37.605Z,33.00
2019-03-08T07:08:22.717Z,30.60
2019-03-08T07:08:58.311Z,27.40
2019-03-08T07:09:33.887Z,32.50
2019-03-08T07:10:09.492Z,34.20
2019-03-08T07:13:17.826Z,25.10
2019-03-08T07:13:53.124Z,35.30
2019-03-08T07:14:28.529Z,32.50
2019-03-08T07:15:03.643Z,24.40
2019-03-08T07:15:39.004Z,24.70
2019-03-08T07:16:14.292Z,31.50
2019-03-08T07:16:49.554Z,30.40
2019-03-08T07:17:24.857Z,29.50
2019-03-08T07:20:50.844Z,29.60
2019-03-08T07:21:26.440Z,33.60
2019-03-08T07:22:01.732Z,26.40
2019-03-08T07:22:36.802Z,33.40
2019-03-08T07:23:12.285Z,35.00
2019-03-08T07:23:47.677Z,38.20
2019-03-08T07:24:23.080Z,39.80
2019-03-08T07:24:58.658Z,26.80
2019-03-08T07:25:33.920Z,20.80
2019-03-08T07:26:09.219Z,17.50
2019-03-08T07:26:59.494Z,23.20
2019-03-08T07:27:34.864Z,37.00
2019-03-08T07:28:10.169Z,32.50
2019-03-08T07:28:45.480Z,32.40
2019-03-08T07:29:21.085Z,32.70
2019-03-08T07:29:56.552Z,31.20
2019-03-08T07:30:31.970Z,37.70
2019-03-08T07:31:07.099Z,36.30
2019-03-08T07:31:42.679Z,35.20
2019-03-08T07:32:17.884Z,34.10
2019-03-08T07:32:53.048Z,30.10
2019-03-08T07:33:28.452Z,26.00
2019-03-08T07:34:03.953Z,23.80
2019-03-08T07:34:39.772Z,23.30
2019-03-08T07:35:14.974Z,30.90
2019-03-08T07:35:50.234Z,34.60
2019-03-08T07:36:25.433Z,27.60
2019-03-08T07:37:01.042Z,34.70
2019-03-08T07:37:36.741Z,31.40
2019-03-08T07:38:19.181Z,35.80
2019-03-08T07:38:54.584Z,35.70
2019-03-08T07:39:30.087Z,47.70
2019-03-08T07:40:05.500Z,29.60
2019-03-08T07:40:40.868Z,31.50
2019-03-08T07:41:16.276Z,37.30
2019-03-08T07:41:51.658Z,29.50
2019-03-08T07:42:26.975Z,29.60
2019-03-08T07:43:02.245Z,32.70
2019-03-08T07:43:37.516Z,42.10
2019-03-08T07:44:12.816Z,41.40
2019-03-08T07:44:48.345Z,32.10
2019-03-08T07:45:23.835Z,27.30
2019-03-08T07:45:59.526Z,32.80
2019-03-08T07:46:35.036Z,47.60
2019-03-08T07:47:10.426Z,43.80
2019-03-08T07:47:45.756Z,27.80
2019-03-08T07:48:21.201Z,36.20
2019-03-08T07:48:56.690Z,36.00
2019-03-08T07:49:32.198Z,38.40
2019-03-08T07:50:07.576Z,39.90
2019-03-08T07:50:42.873Z,32.10
2019-03-08T07:51:18.295Z,45.50
2019-03-08T07:51:53.464Z,51.70
2019-03-08T07:52:28.770Z,34.70
2019-03-08T07:53:04.277Z,29.30
2019-03-08T07:53:39.899Z,30.80
2019-03-08T07:54:15.417Z,32.30
2019-03-08T07:54:53.113Z,33.10
2019-03-08T07:55:26.047Z,32.60
2019-03-08T07:56:01.333Z,28.80
2019-03-08T07:56:36.845Z,29.00
2019-03-08T07:57:12.319Z,25.90
2019-03-08T07:57:47.852Z,29.00
2019-03-08T07:58:25.386Z,32.20
2019-03-08T07:59:00.679Z,38.20
2019-03-08T07:59:36.010Z,32.20
2019-03-08T08:00:11.081Z,39.80
2019-03-08T08:00:46.493Z,39.10
2019-03-08T08:01:21.872Z,29.70
2019-03-08T08:01:57.268Z,31.60
2019-03-08T08:02:32.590Z,33.10
2019-03-08T08:03:08.078Z,38.50
2019-03-08T08:03:43.635Z,33.80
2019-03-08T08:04:19.155Z,29.00
2019-03-08T08:04:54.636Z,23.60
2019-03-08T08:05:30.050Z,30.40
2019-03-08T08:06:05.515Z,34.00
2019-03-08T08:06:40.942Z,24.80
2019-03-08T08:07:16.318Z,25.70